sensor_id;sensor_type;location;lat;lon;timestamp;P1;durP1;ratioP1;P2;durP2;ratioP2
56860;SDS011;42744;51.094;3.490;2023-03-19T00:02:05;6.70;;;5.53;;
56860;SDS011;42744;51.094;3.490;2023-03-19T00:04:32;8.10;;;5.50;;
56860;SDS011;42744;51.094;3.490;2023-03-19T00:06:58;5.60;;;4.97;;
56860;SDS011;42744;51.094;3.490;2023-03-19T00:09:24;8.93;;;5.17;;
56860;SDS011;42744;51.094;3.490;2023-03-19T00:11:52;7.77;;;5.80;;
56860;SDS011;42744;51.094;3.490;2023-03-19T00:14:18;8.67;;;5.50;;
56860;SDS011;42744;51.094;3.490;2023-03-19T00:16:43;7.10;;;5.47;;
56860;SDS011;42744;51.094;3.490;2023-03-19T00:19:10;8.03;;;5.63;;
56860;SDS011;42744;51.094;3.490;2023-03-19T00:21:36;6.97;;;5.30;;
56860;SDS011;42744;51.094;3.490;2023-03-19T00:24:02;8.10;;;5.23;;
56860;SDS011;42744;51.094;3.490;2023-03-19T00:26:30;8.37;;;5.50;;
56860;SDS011;42744;51.094;3.490;2023-03-19T00:28:57;7.07;;;5.20;;
56860;SDS011;42744;51.094;3.490;2023-03-19T00:31:23;7.03;;;5.07;;
56860;SDS011;42744;51.094;3.490;2023-03-19T00:33:51;7.27;;;6.03;;
56860;SDS011;42744;51.094;3.490;2023-03-19T00:36:17;7.60;;;5.70;;
56860;SDS011;42744;51.094;3.490;2023-03-19T00:38:44;7.40;;;5.47;;
56860;SDS011;42744;51.094;3.490;2023-03-19T00:41:11;5.93;;;5.33;;
56860;SDS011;42744;51.094;3.490;2023-03-19T00:43:38;7.53;;;5.40;;
56860;SDS011;42744;51.094;3.490;2023-03-19T00:46:04;5.97;;;5.00;;
56860;SDS011;42744;51.094;3.490;2023-03-19T00:48:31;5.83;;;4.73;;
56860;SDS011;42744;51.094;3.490;2023-03-19T00:51:02;5.60;;;5.00;;
56860;SDS011;42744;51.094;3.490;2023-03-19T00:53:29;5.87;;;4.83;;
56860;SDS011;42744;51.094;3.490;2023-03-19T00:55:58;8.00;;;4.77;;
56860;SDS011;42744;51.094;3.490;2023-03-19T00:58:24;5.37;;;4.87;;
56860;SDS011;42744;51.094;3.490;2023-03-19T01:00:53;7.53;;;5.63;;
56860;SDS011;42744;51.094;3.490;2023-03-19T01:03:20;8.90;;;5.23;;
56860;SDS011;42744;51.094;3.490;2023-03-19T01:05:46;7.47;;;5.03;;
56860;SDS011;42744;51.094;3.490;2023-03-19T01:08:14;7.20;;;5.50;;
56860;SDS011;42744;51.094;3.490;2023-03-19T01:10:41;6.90;;;5.30;;
56860;SDS011;42744;51.094;3.490;2023-03-19T01:13:07;7.17;;;5.50;;
56860;SDS011;42744;51.094;3.490;2023-03-19T01:15:36;6.83;;;5.40;;
56860;SDS011;42744;51.094;3.490;2023-03-19T01:18:07;9.00;;;6.17;;
56860;SDS011;42744;51.094;3.490;2023-03-19T01:20:35;9.53;;;5.80;;
56860;SDS011;42744;51.094;3.490;2023-03-19T01:23:02;9.10;;;5.77;;
56860;SDS011;42744;51.094;3.490;2023-03-19T01:25:29;11.53;;;6.73;;
56860;SDS011;42744;51.094;3.490;2023-03-19T01:27:58;6.37;;;5.63;;
56860;SDS011;42744;51.094;3.490;2023-03-19T01:30:24;7.40;;;6.00;;
56860;SDS011;42744;51.094;3.490;2023-03-19T01:32:52;7.27;;;6.27;;
56860;SDS011;42744;51.094;3.490;2023-03-19T01:35:19;8.27;;;6.00;;
56860;SDS011;42744;51.094;3.490;2023-03-19T01:37:45;7.63;;;6.23;;
56860;SDS011;42744;51.094;3.490;2023-03-19T01:40:15;9.43;;;6.37;;
56860;SDS011;42744;51.094;3.490;2023-03-19T01:43:11;11.40;;;6.23;;
56860;SDS011;42744;51.094;3.490;2023-03-19T01:45:40;8.13;;;6.10;;
56860;SDS011;42744;51.094;3.490;2023-03-19T01:48:15;8.93;;;5.77;;
56860;SDS011;42744;51.094;3.490;2023-03-19T01:50:45;8.93;;;5.60;;
56860;SDS011;42744;51.094;3.490;2023-03-19T01:53:16;8.03;;;6.20;;
56860;SDS011;42744;51.094;3.490;2023-03-19T01:55:43;11.07;;;6.80;;
56860;SDS011;42744;51.094;3.490;2023-03-19T01:58:11;9.97;;;6.63;;
56860;SDS011;42744;51.094;3.490;2023-03-19T02:00:38;7.10;;;6.13;;
56860;SDS011;42744;51.094;3.490;2023-03-19T02:03:05;9.60;;;6.57;;
56860;SDS011;42744;51.094;3.490;2023-03-19T02:05:32;9.00;;;6.30;;
56860;SDS011;42744;51.094;3.490;2023-03-19T02:08:02;7.33;;;6.40;;
56860;SDS011;42744;51.094;3.490;2023-03-19T02:10:31;9.50;;;6.03;;
56860;SDS011;42744;51.094;3.490;2023-03-19T02:12:57;9.80;;;6.53;;
56860;SDS011;42744;51.094;3.490;2023-03-19T02:15:23;8.83;;;6.50;;
56860;SDS011;42744;51.094;3.490;2023-03-19T02:17:50;10.20;;;6.33;;
56860;SDS011;42744;51.094;3.490;2023-03-19T02:20:37;8.87;;;5.77;;
56860;SDS011;42744;51.094;3.490;2023-03-19T02:26:08;8.27;;;6.10;;
56860;SDS011;42744;51.094;3.490;2023-03-19T02:28:37;8.83;;;6.03;;
56860;SDS011;42744;51.094;3.490;2023-03-19T02:31:07;8.03;;;6.20;;
56860;SDS011;42744;51.094;3.490;2023-03-19T02:33:34;10.43;;;6.27;;
56860;SDS011;42744;51.094;3.490;2023-03-19T02:36:01;8.57;;;6.10;;
56860;SDS011;42744;51.094;3.490;2023-03-19T02:38:30;7.47;;;5.90;;
56860;SDS011;42744;51.094;3.490;2023-03-19T02:41:02;8.27;;;5.87;;
56860;SDS011;42744;51.094;3.490;2023-03-19T02:43:34;9.43;;;5.90;;
56860;SDS011;42744;51.094;3.490;2023-03-19T02:46:04;8.67;;;5.70;;
56860;SDS011;42744;51.094;3.490;2023-03-19T02:48:34;14.03;;;6.57;;
56860;SDS011;42744;51.094;3.490;2023-03-19T02:51:00;9.03;;;5.50;;
56860;SDS011;42744;51.094;3.490;2023-03-19T02:53:26;7.90;;;5.63;;
56860;SDS011;42744;51.094;3.490;2023-03-19T02:55:52;8.43;;;5.60;;
56860;SDS011;42744;51.094;3.490;2023-03-19T02:58:19;8.13;;;5.33;;
56860;SDS011;42744;51.094;3.490;2023-03-19T03:00:45;8.67;;;5.80;;
56860;SDS011;42744;51.094;3.490;2023-03-19T03:03:11;7.20;;;4.97;;
56860;SDS011;42744;51.094;3.490;2023-03-19T03:05:38;9.70;;;6.20;;
56860;SDS011;42744;51.094;3.490;2023-03-19T03:08:05;11.60;;;5.57;;
56860;SDS011;42744;51.094;3.490;2023-03-19T03:10:32;6.50;;;5.17;;
56860;SDS011;42744;51.094;3.490;2023-03-19T03:12:58;8.20;;;5.10;;
56860;SDS011;42744;51.094;3.490;2023-03-19T03:15:25;6.37;;;4.87;;
56860;SDS011;42744;51.094;3.490;2023-03-19T03:17:51;5.83;;;4.60;;
56860;SDS011;42744;51.094;3.490;2023-03-19T03:20:17;6.90;;;5.23;;
56860;SDS011;42744;51.094;3.490;2023-03-19T03:22:44;10.13;;;5.03;;
56860;SDS011;42744;51.094;3.490;2023-03-19T03:25:11;7.93;;;4.97;;
56860;SDS011;42744;51.094;3.490;2023-03-19T03:27:37;7.00;;;5.63;;
56860;SDS011;42744;51.094;3.490;2023-03-19T03:30:04;8.60;;;5.37;;
56860;SDS011;42744;51.094;3.490;2023-03-19T03:32:33;8.30;;;5.93;;
56860;SDS011;42744;51.094;3.490;2023-03-19T03:34:59;8.47;;;5.97;;
56860;SDS011;42744;51.094;3.490;2023-03-19T03:37:25;7.47;;;6.13;;
56860;SDS011;42744;51.094;3.490;2023-03-19T03:39:52;10.77;;;6.23;;
56860;SDS011;42744;51.094;3.490;2023-03-19T03:42:18;12.43;;;5.73;;
56860;SDS011;42744;51.094;3.490;2023-03-19T03:44:44;11.90;;;6.43;;
56860;SDS011;42744;51.094;3.490;2023-03-19T03:47:10;8.23;;;6.03;;
56860;SDS011;42744;51.094;3.490;2023-03-19T03:49:37;13.33;;;6.83;;
56860;SDS011;42744;51.094;3.490;2023-03-19T03:52:03;12.77;;;7.20;;
56860;SDS011;42744;51.094;3.490;2023-03-19T03:54:29;12.03;;;7.17;;
56860;SDS011;42744;51.094;3.490;2023-03-19T03:56:55;11.33;;;6.60;;
56860;SDS011;42744;51.094;3.490;2023-03-19T03:59:21;12.23;;;7.17;;
56860;SDS011;42744;51.094;3.490;2023-03-19T04:01:51;14.00;;;7.33;;
56860;SDS011;42744;51.094;3.490;2023-03-19T04:04:17;19.47;;;7.83;;
56860;SDS011;42744;51.094;3.490;2023-03-19T04:06:44;16.77;;;7.77;;
56860;SDS011;42744;51.094;3.490;2023-03-19T04:09:11;16.33;;;8.03;;
56860;SDS011;42744;51.094;3.490;2023-03-19T04:11:37;15.07;;;7.57;;
56860;SDS011;42744;51.094;3.490;2023-03-19T04:14:05;12.30;;;7.50;;
56860;SDS011;42744;51.094;3.490;2023-03-19T04:16:33;17.07;;;7.50;;
56860;SDS011;42744;51.094;3.490;2023-03-19T04:18:59;15.00;;;7.70;;
56860;SDS011;42744;51.094;3.490;2023-03-19T04:21:25;12.83;;;7.33;;
56860;SDS011;42744;51.094;3.490;2023-03-19T04:23:52;16.60;;;7.97;;
56860;SDS011;42744;51.094;3.490;2023-03-19T04:26:19;16.00;;;8.10;;
56860;SDS011;42744;51.094;3.490;2023-03-19T04:28:45;16.67;;;7.73;;
56860;SDS011;42744;51.094;3.490;2023-03-19T04:31:13;17.77;;;8.50;;
56860;SDS011;42744;51.094;3.490;2023-03-19T04:33:40;15.93;;;8.60;;
56860;SDS011;42744;51.094;3.490;2023-03-19T04:36:07;18.37;;;9.40;;
56860;SDS011;42744;51.094;3.490;2023-03-19T04:38:34;17.20;;;9.30;;
56860;SDS011;42744;51.094;3.490;2023-03-19T04:41:00;20.23;;;9.53;;
56860;SDS011;42744;51.094;3.490;2023-03-19T04:43:26;20.37;;;8.70;;
56860;SDS011;42744;51.094;3.490;2023-03-19T04:45:53;17.00;;;8.87;;
56860;SDS011;42744;51.094;3.490;2023-03-19T04:48:19;19.70;;;8.47;;
56860;SDS011;42744;51.094;3.490;2023-03-19T04:50:46;15.93;;;8.37;;
56860;SDS011;42744;51.094;3.490;2023-03-19T04:53:16;15.13;;;8.67;;
56860;SDS011;42744;51.094;3.490;2023-03-19T04:55:42;18.10;;;8.00;;
56860;SDS011;42744;51.094;3.490;2023-03-19T04:58:12;17.13;;;8.97;;
56860;SDS011;42744;51.094;3.490;2023-03-19T05:00:39;15.10;;;7.90;;
56860;SDS011;42744;51.094;3.490;2023-03-19T05:03:05;17.60;;;8.90;;
56860;SDS011;42744;51.094;3.490;2023-03-19T05:05:32;19.20;;;9.07;;
56860;SDS011;42744;51.094;3.490;2023-03-19T05:07:58;18.40;;;8.47;;
56860;SDS011;42744;51.094;3.490;2023-03-19T05:10:25;15.73;;;7.97;;
56860;SDS011;42744;51.094;3.490;2023-03-19T05:12:51;14.37;;;7.57;;
56860;SDS011;42744;51.094;3.490;2023-03-19T05:15:18;15.97;;;8.00;;
56860;SDS011;42744;51.094;3.490;2023-03-19T05:17:44;17.00;;;7.50;;
56860;SDS011;42744;51.094;3.490;2023-03-19T05:20:10;17.90;;;8.00;;
56860;SDS011;42744;51.094;3.490;2023-03-19T05:22:38;13.17;;;7.73;;
56860;SDS011;42744;51.094;3.490;2023-03-19T05:25:05;14.93;;;8.10;;
56860;SDS011;42744;51.094;3.490;2023-03-19T05:27:32;15.97;;;6.67;;
56860;SDS011;42744;51.094;3.490;2023-03-19T05:29:59;16.17;;;6.70;;
56860;SDS011;42744;51.094;3.490;2023-03-19T05:32:26;16.33;;;7.40;;
56860;SDS011;42744;51.094;3.490;2023-03-19T05:34:53;19.83;;;6.20;;
56860;SDS011;42744;51.094;3.490;2023-03-19T05:37:19;17.10;;;7.10;;
56860;SDS011;42744;51.094;3.490;2023-03-19T05:39:47;17.00;;;7.47;;
56860;SDS011;42744;51.094;3.490;2023-03-19T05:42:13;14.77;;;6.57;;
56860;SDS011;42744;51.094;3.490;2023-03-19T05:44:39;14.57;;;6.87;;
56860;SDS011;42744;51.094;3.490;2023-03-19T05:47:07;23.47;;;7.00;;
56860;SDS011;42744;51.094;3.490;2023-03-19T05:49:35;21.73;;;6.50;;
56860;SDS011;42744;51.094;3.490;2023-03-19T05:52:02;20.53;;;7.30;;
56860;SDS011;42744;51.094;3.490;2023-03-19T05:54:29;17.40;;;7.10;;
56860;SDS011;42744;51.094;3.490;2023-03-19T05:56:55;22.20;;;8.37;;
56860;SDS011;42744;51.094;3.490;2023-03-19T05:59:22;17.07;;;7.67;;
56860;SDS011;42744;51.094;3.490;2023-03-19T06:01:50;22.03;;;8.93;;
56860;SDS011;42744;51.094;3.490;2023-03-19T06:04:16;19.63;;;8.73;;
56860;SDS011;42744;51.094;3.490;2023-03-19T06:06:42;16.97;;;8.57;;
56860;SDS011;42744;51.094;3.490;2023-03-19T06:09:08;26.77;;;10.10;;
56860;SDS011;42744;51.094;3.490;2023-03-19T06:11:35;25.07;;;9.90;;
56860;SDS011;42744;51.094;3.490;2023-03-19T06:14:05;29.23;;;10.10;;
56860;SDS011;42744;51.094;3.490;2023-03-19T06:16:32;21.40;;;9.87;;
56860;SDS011;42744;51.094;3.490;2023-03-19T06:18:59;28.67;;;10.43;;
56860;SDS011;42744;51.094;3.490;2023-03-19T06:21:25;22.03;;;10.60;;
56860;SDS011;42744;51.094;3.490;2023-03-19T06:23:55;22.10;;;10.87;;
56860;SDS011;42744;51.094;3.490;2023-03-19T06:26:22;32.73;;;11.87;;
56860;SDS011;42744;51.094;3.490;2023-03-19T06:28:49;21.17;;;11.43;;
56860;SDS011;42744;51.094;3.490;2023-03-19T06:31:17;21.30;;;11.37;;
56860;SDS011;42744;51.094;3.490;2023-03-19T06:33:45;25.17;;;12.23;;
56860;SDS011;42744;51.094;3.490;2023-03-19T06:36:11;27.93;;;12.80;;
56860;SDS011;42744;51.094;3.490;2023-03-19T06:38:37;20.20;;;12.30;;
56860;SDS011;42744;51.094;3.490;2023-03-19T06:41:03;28.80;;;13.67;;
56860;SDS011;42744;51.094;3.490;2023-03-19T06:43:29;35.47;;;15.83;;
56860;SDS011;42744;51.094;3.490;2023-03-19T06:45:56;33.03;;;15.63;;
56860;SDS011;42744;51.094;3.490;2023-03-19T06:48:22;35.50;;;16.83;;
56860;SDS011;42744;51.094;3.490;2023-03-19T06:50:48;32.30;;;15.83;;
56860;SDS011;42744;51.094;3.490;2023-03-19T06:53:14;30.50;;;15.93;;
56860;SDS011;42744;51.094;3.490;2023-03-19T06:55:40;33.50;;;15.57;;
56860;SDS011;42744;51.094;3.490;2023-03-19T06:58:06;37.93;;;17.00;;
56860;SDS011;42744;51.094;3.490;2023-03-19T07:00:32;37.10;;;16.73;;
56860;SDS011;42744;51.094;3.490;2023-03-19T07:02:59;28.67;;;15.60;;
56860;SDS011;42744;51.094;3.490;2023-03-19T07:05:25;28.97;;;16.10;;
56860;SDS011;42744;51.094;3.490;2023-03-19T07:07:50;28.77;;;16.10;;
56860;SDS011;42744;51.094;3.490;2023-03-19T07:10:20;35.03;;;16.43;;
56860;SDS011;42744;51.094;3.490;2023-03-19T07:12:46;37.90;;;15.90;;
56860;SDS011;42744;51.094;3.490;2023-03-19T07:15:12;34.87;;;15.47;;
56860;SDS011;42744;51.094;3.490;2023-03-19T07:17:39;41.17;;;16.73;;
56860;SDS011;42744;51.094;3.490;2023-03-19T07:20:05;34.30;;;15.17;;
56860;SDS011;42744;51.094;3.490;2023-03-19T07:22:32;30.77;;;14.67;;
56860;SDS011;42744;51.094;3.490;2023-03-19T07:24:58;30.13;;;15.20;;
56860;SDS011;42744;51.094;3.490;2023-03-19T07:27:24;29.83;;;15.77;;
56860;SDS011;42744;51.094;3.490;2023-03-19T07:29:50;32.43;;;16.40;;
56860;SDS011;42744;51.094;3.490;2023-03-19T07:32:16;32.93;;;16.17;;
56860;SDS011;42744;51.094;3.490;2023-03-19T07:34:42;35.77;;;16.47;;
56860;SDS011;42744;51.094;3.490;2023-03-19T07:37:08;28.87;;;15.30;;
56860;SDS011;42744;51.094;3.490;2023-03-19T07:39:34;28.67;;;14.80;;
56860;SDS011;42744;51.094;3.490;2023-03-19T07:42:00;34.47;;;17.07;;
56860;SDS011;42744;51.094;3.490;2023-03-19T07:44:27;31.30;;;16.43;;
56860;SDS011;42744;51.094;3.490;2023-03-19T07:46:53;32.43;;;15.13;;
56860;SDS011;42744;51.094;3.490;2023-03-19T07:49:19;31.07;;;16.03;;
56860;SDS011;42744;51.094;3.490;2023-03-19T07:51:46;25.17;;;14.77;;
56860;SDS011;42744;51.094;3.490;2023-03-19T07:54:12;29.00;;;15.77;;
56860;SDS011;42744;51.094;3.490;2023-03-19T07:56:38;29.23;;;16.13;;
56860;SDS011;42744;51.094;3.490;2023-03-19T07:59:04;32.30;;;15.27;;
56860;SDS011;42744;51.094;3.490;2023-03-19T08:01:31;32.60;;;16.13;;
56860;SDS011;42744;51.094;3.490;2023-03-19T08:04:00;33.63;;;16.33;;
56860;SDS011;42744;51.094;3.490;2023-03-19T08:06:26;33.57;;;16.10;;
56860;SDS011;42744;51.094;3.490;2023-03-19T08:08:52;32.50;;;17.67;;
56860;SDS011;42744;51.094;3.490;2023-03-19T08:11:18;31.07;;;16.40;;
56860;SDS011;42744;51.094;3.490;2023-03-19T08:13:44;31.33;;;16.73;;
56860;SDS011;42744;51.094;3.490;2023-03-19T08:16:10;33.13;;;16.00;;
56860;SDS011;42744;51.094;3.490;2023-03-19T08:18:36;30.97;;;15.27;;
56860;SDS011;42744;51.094;3.490;2023-03-19T08:21:02;29.03;;;16.20;;
56860;SDS011;42744;51.094;3.490;2023-03-19T08:23:28;32.90;;;15.50;;
56860;SDS011;42744;51.094;3.490;2023-03-19T08:25:54;30.43;;;15.30;;
56860;SDS011;42744;51.094;3.490;2023-03-19T08:28:21;32.10;;;15.60;;
56860;SDS011;42744;51.094;3.490;2023-03-19T08:30:47;30.80;;;15.47;;
56860;SDS011;42744;51.094;3.490;2023-03-19T08:33:14;34.77;;;15.80;;
56860;SDS011;42744;51.094;3.490;2023-03-19T08:35:40;34.53;;;15.83;;
56860;SDS011;42744;51.094;3.490;2023-03-19T08:38:06;33.83;;;15.13;;
56860;SDS011;42744;51.094;3.490;2023-03-19T08:40:32;32.03;;;15.83;;
56860;SDS011;42744;51.094;3.490;2023-03-19T08:42:58;34.43;;;16.20;;
56860;SDS011;42744;51.094;3.490;2023-03-19T08:45:24;32.20;;;16.53;;
56860;SDS011;42744;51.094;3.490;2023-03-19T08:47:50;32.13;;;17.17;;
56860;SDS011;42744;51.094;3.490;2023-03-19T08:50:17;42.03;;;17.73;;
56860;SDS011;42744;51.094;3.490;2023-03-19T08:52:43;31.90;;;17.33;;
56860;SDS011;42744;51.094;3.490;2023-03-19T08:55:09;33.67;;;18.57;;
56860;SDS011;42744;51.094;3.490;2023-03-19T08:57:37;34.40;;;18.20;;
56860;SDS011;42744;51.094;3.490;2023-03-19T09:00:03;38.07;;;17.60;;
56860;SDS011;42744;51.094;3.490;2023-03-19T09:02:30;29.07;;;15.63;;
56860;SDS011;42744;51.094;3.490;2023-03-19T09:04:56;23.83;;;12.43;;
56860;SDS011;42744;51.094;3.490;2023-03-19T09:07:22;15.67;;;8.83;;
56860;SDS011;42744;51.094;3.490;2023-03-19T09:09:48;11.87;;;8.00;;
56860;SDS011;42744;51.094;3.490;2023-03-19T09:12:15;13.30;;;7.57;;
56860;SDS011;42744;51.094;3.490;2023-03-19T09:14:42;14.30;;;6.70;;
56860;SDS011;42744;51.094;3.490;2023-03-19T09:17:08;18.20;;;7.70;;
56860;SDS011;42744;51.094;3.490;2023-03-19T09:19:35;13.13;;;7.23;;
56860;SDS011;42744;51.094;3.490;2023-03-19T09:22:02;14.83;;;7.27;;
56860;SDS011;42744;51.094;3.490;2023-03-19T09:24:28;19.00;;;7.60;;
56860;SDS011;42744;51.094;3.490;2023-03-19T09:26:54;15.40;;;6.43;;
56860;SDS011;42744;51.094;3.490;2023-03-19T09:29:21;12.67;;;6.00;;
56860;SDS011;42744;51.094;3.490;2023-03-19T09:31:47;14.67;;;6.37;;
56860;SDS011;42744;51.094;3.490;2023-03-19T09:34:13;13.83;;;6.03;;
56860;SDS011;42744;51.094;3.490;2023-03-19T09:36:39;13.83;;;5.87;;
56860;SDS011;42744;51.094;3.490;2023-03-19T09:39:05;12.13;;;5.37;;
56860;SDS011;42744;51.094;3.490;2023-03-19T09:44:27;12.13;;;5.80;;
56860;SDS011;42744;51.094;3.490;2023-03-19T09:49:28;10.00;;;4.67;;
56860;SDS011;42744;51.094;3.490;2023-03-19T09:52:08;10.83;;;4.73;;
56860;SDS011;42744;51.094;3.490;2023-03-19T09:54:56;9.27;;;3.87;;
56860;SDS011;42744;51.094;3.490;2023-03-19T09:57:25;10.00;;;5.33;;
56860;SDS011;42744;51.094;3.490;2023-03-19T09:59:54;15.10;;;5.50;;
56860;SDS011;42744;51.094;3.490;2023-03-19T10:02:35;7.57;;;5.07;;
56860;SDS011;42744;51.094;3.490;2023-03-19T10:07:55;9.77;;;4.70;;
56860;SDS011;42744;51.094;3.490;2023-03-19T10:10:44;9.03;;;4.20;;
56860;SDS011;42744;51.094;3.490;2023-03-19T10:13:52;8.77;;;4.63;;
56860;SDS011;42744;51.094;3.490;2023-03-19T10:16:29;12.23;;;4.90;;
56860;SDS011;42744;51.094;3.490;2023-03-19T10:18:58;9.27;;;5.00;;
56860;SDS011;42744;51.094;3.490;2023-03-19T10:21:31;9.50;;;4.83;;
56860;SDS011;42744;51.094;3.490;2023-03-19T10:24:03;11.83;;;4.70;;
56860;SDS011;42744;51.094;3.490;2023-03-19T10:26:35;8.83;;;4.90;;
56860;SDS011;42744;51.094;3.490;2023-03-19T10:29:03;9.40;;;4.30;;
56860;SDS011;42744;51.094;3.490;2023-03-19T10:34:32;8.10;;;4.97;;
56860;SDS011;42744;51.094;3.490;2023-03-19T10:39:34;7.43;;;5.10;;
56860;SDS011;42744;51.094;3.490;2023-03-19T10:45:04;8.43;;;4.47;;
56860;SDS011;42744;51.094;3.490;2023-03-19T10:47:43;8.70;;;4.87;;
56860;SDS011;42744;51.094;3.490;2023-03-19T10:50:20;6.93;;;4.37;;
56860;SDS011;42744;51.094;3.490;2023-03-19T10:53:20;7.73;;;4.37;;
56860;SDS011;42744;51.094;3.490;2023-03-19T10:56:05;5.97;;;3.97;;
56860;SDS011;42744;51.094;3.490;2023-03-19T10:58:40;6.80;;;4.60;;
56860;SDS011;42744;51.094;3.490;2023-03-19T11:01:26;8.37;;;4.10;;
56860;SDS011;42744;51.094;3.490;2023-03-19T11:04:00;5.90;;;3.10;;
56860;SDS011;42744;51.094;3.490;2023-03-19T11:06:36;4.47;;;2.87;;
56860;SDS011;42744;51.094;3.490;2023-03-19T11:12:14;3.20;;;2.17;;
56860;SDS011;42744;51.094;3.490;2023-03-19T11:14:42;4.87;;;2.37;;
56860;SDS011;42744;51.094;3.490;2023-03-19T11:19:47;5.53;;;2.50;;
56860;SDS011;42744;51.094;3.490;2023-03-19T11:22:27;2.53;;;1.67;;
56860;SDS011;42744;51.094;3.490;2023-03-19T11:24:59;3.00;;;1.83;;
56860;SDS011;42744;51.094;3.490;2023-03-19T11:27:59;2.87;;;1.40;;
56860;SDS011;42744;51.094;3.490;2023-03-19T11:30:33;1.67;;;1.10;;
56860;SDS011;42744;51.094;3.490;2023-03-19T11:41:26;2.50;;;0.90;;
56860;SDS011;42744;51.094;3.490;2023-03-19T11:44:17;2.33;;;1.03;;
56860;SDS011;42744;51.094;3.490;2023-03-19T11:46:53;3.90;;;0.80;;
56860;SDS011;42744;51.094;3.490;2023-03-19T11:49:34;1.70;;;0.83;;
56860;SDS011;42744;51.094;3.490;2023-03-19T11:54:44;9.40;;;1.30;;
56860;SDS011;42744;51.094;3.490;2023-03-19T12:08:27;2.83;;;1.40;;
56860;SDS011;42744;51.094;3.490;2023-03-19T12:22:26;3.83;;;1.83;;
56860;SDS011;42744;51.094;3.490;2023-03-19T12:27:54;4.00;;;1.73;;
56860;SDS011;42744;51.094;3.490;2023-03-19T12:30:40;3.97;;;2.00;;
56860;SDS011;42744;51.094;3.490;2023-03-19T12:33:24;4.43;;;1.97;;
56860;SDS011;42744;51.094;3.490;2023-03-19T12:35:55;2.77;;;2.10;;
56860;SDS011;42744;51.094;3.490;2023-03-19T12:40:59;4.83;;;2.23;;
56860;SDS011;42744;51.094;3.490;2023-03-19T12:48:59;3.57;;;2.37;;
56860;SDS011;42744;51.094;3.490;2023-03-19T12:51:33;6.67;;;2.10;;
56860;SDS011;42744;51.094;3.490;2023-03-19T13:02:03;5.07;;;2.53;;
56860;SDS011;42744;51.094;3.490;2023-03-19T13:04:44;7.03;;;2.70;;
56860;SDS011;42744;51.094;3.490;2023-03-19T13:08:10;3.03;;;2.17;;
56860;SDS011;42744;51.094;3.490;2023-03-19T13:10:24;4.63;;;2.67;;
56860;SDS011;42744;51.094;3.490;2023-03-19T13:12:53;8.47;;;3.47;;
56860;SDS011;42744;51.094;3.490;2023-03-19T13:23:12;5.53;;;3.47;;
56860;SDS011;42744;51.094;3.490;2023-03-19T13:25:45;13.13;;;3.70;;
56860;SDS011;42744;51.094;3.490;2023-03-19T13:28:21;9.63;;;4.37;;
56860;SDS011;42744;51.094;3.490;2023-03-19T13:31:03;10.57;;;3.93;;
56860;SDS011;42744;51.094;3.490;2023-03-19T13:33:48;7.67;;;4.13;;
56860;SDS011;42744;51.094;3.490;2023-03-19T13:36:27;7.10;;;4.20;;
56860;SDS011;42744;51.094;3.490;2023-03-19T13:38:55;8.17;;;3.80;;
56860;SDS011;42744;51.094;3.490;2023-03-19T13:47:00;6.37;;;3.13;;
56860;SDS011;42744;51.094;3.490;2023-03-19T13:50:09;6.20;;;3.30;;
56860;SDS011;42744;51.094;3.490;2023-03-19T13:52:48;7.73;;;3.50;;
56860;SDS011;42744;51.094;3.490;2023-03-19T14:01:07;6.67;;;2.97;;
56860;SDS011;42744;51.094;3.490;2023-03-19T14:03:35;8.13;;;3.43;;
56860;SDS011;42744;51.094;3.490;2023-03-19T14:09:31;4.80;;;2.77;;
56860;SDS011;42744;51.094;3.490;2023-03-19T14:15:03;4.40;;;3.13;;
56860;SDS011;42744;51.094;3.490;2023-03-19T14:18:00;5.57;;;3.20;;
56860;SDS011;42744;51.094;3.490;2023-03-19T14:20:27;11.20;;;3.47;;
56860;SDS011;42744;51.094;3.490;2023-03-19T14:31:06;7.13;;;2.90;;
56860;SDS011;42744;51.094;3.490;2023-03-19T14:33:45;7.13;;;3.33;;
56860;SDS011;42744;51.094;3.490;2023-03-19T14:36:20;4.70;;;2.73;;
56860;SDS011;42744;51.094;3.490;2023-03-19T14:41:17;6.80;;;3.23;;
56860;SDS011;42744;51.094;3.490;2023-03-19T14:47:40;7.33;;;4.00;;
56860;SDS011;42744;51.094;3.490;2023-03-19T14:52:27;5.50;;;3.30;;
56860;SDS011;42744;51.094;3.490;2023-03-19T14:55:06;6.83;;;2.90;;
56860;SDS011;42744;51.094;3.490;2023-03-19T14:57:35;6.37;;;3.37;;
56860;SDS011;42744;51.094;3.490;2023-03-19T15:00:04;8.00;;;3.53;;
56860;SDS011;42744;51.094;3.490;2023-03-19T15:05:14;8.00;;;3.67;;
56860;SDS011;42744;51.094;3.490;2023-03-19T15:07:46;7.67;;;3.37;;
56860;SDS011;42744;51.094;3.490;2023-03-19T15:10:16;6.33;;;3.20;;
56860;SDS011;42744;51.094;3.490;2023-03-19T15:18:03;8.67;;;3.40;;
56860;SDS011;42744;51.094;3.490;2023-03-19T15:20:36;6.97;;;3.40;;
56860;SDS011;42744;51.094;3.490;2023-03-19T15:23:07;9.97;;;4.03;;
56860;SDS011;42744;51.094;3.490;2023-03-19T15:25:42;5.77;;;3.37;;
56860;SDS011;42744;51.094;3.490;2023-03-19T15:28:16;7.97;;;4.07;;
56860;SDS011;42744;51.094;3.490;2023-03-19T15:30:44;11.03;;;4.10;;
56860;SDS011;42744;51.094;3.490;2023-03-19T15:33:20;9.90;;;4.60;;
56860;SDS011;42744;51.094;3.490;2023-03-19T15:35:55;7.43;;;3.67;;
56860;SDS011;42744;51.094;3.490;2023-03-19T15:38:27;10.63;;;4.30;;
56860;SDS011;42744;51.094;3.490;2023-03-19T15:40:57;10.83;;;4.00;;
56860;SDS011;42744;51.094;3.490;2023-03-19T15:43:26;6.57;;;3.53;;
56860;SDS011;42744;51.094;3.490;2023-03-19T15:45:52;9.77;;;3.80;;
56860;SDS011;42744;51.094;3.490;2023-03-19T15:48:20;10.47;;;3.83;;
56860;SDS011;42744;51.094;3.490;2023-03-19T15:50:55;10.13;;;3.87;;
56860;SDS011;42744;51.094;3.490;2023-03-19T15:53:24;5.77;;;3.20;;
56860;SDS011;42744;51.094;3.490;2023-03-19T15:55:53;9.63;;;3.50;;
56860;SDS011;42744;51.094;3.490;2023-03-19T15:58:26;6.47;;;4.00;;
56860;SDS011;42744;51.094;3.490;2023-03-19T16:00:56;7.93;;;4.07;;
56860;SDS011;42744;51.094;3.490;2023-03-19T16:03:27;10.53;;;4.87;;
56860;SDS011;42744;51.094;3.490;2023-03-19T16:05:59;11.03;;;6.90;;
56860;SDS011;42744;51.094;3.490;2023-03-19T16:08:28;18.93;;;9.17;;
56860;SDS011;42744;51.094;3.490;2023-03-19T16:11:10;11.90;;;6.33;;
56860;SDS011;42744;51.094;3.490;2023-03-19T16:14:00;12.37;;;6.23;;
56860;SDS011;42744;51.094;3.490;2023-03-19T16:16:33;12.33;;;6.53;;
56860;SDS011;42744;51.094;3.490;2023-03-19T16:19:00;12.43;;;8.27;;
56860;SDS011;42744;51.094;3.490;2023-03-19T16:23:58;13.33;;;6.50;;
56860;SDS011;42744;51.094;3.490;2023-03-19T16:26:36;14.37;;;6.80;;
56860;SDS011;42744;51.094;3.490;2023-03-19T16:29:16;10.97;;;6.40;;
56860;SDS011;42744;51.094;3.490;2023-03-19T16:31:44;11.10;;;5.30;;
56860;SDS011;42744;51.094;3.490;2023-03-19T16:36:50;9.27;;;5.13;;
56860;SDS011;42744;51.094;3.490;2023-03-19T16:42:13;8.40;;;4.80;;
56860;SDS011;42744;51.094;3.490;2023-03-19T16:44:41;10.57;;;4.77;;
56860;SDS011;42744;51.094;3.490;2023-03-19T16:47:09;9.33;;;6.17;;
56860;SDS011;42744;51.094;3.490;2023-03-19T16:49:36;8.53;;;5.97;;
56860;SDS011;42744;51.094;3.490;2023-03-19T16:52:02;7.97;;;5.53;;
56860;SDS011;42744;51.094;3.490;2023-03-19T16:54:29;10.43;;;5.17;;
56860;SDS011;42744;51.094;3.490;2023-03-19T16:56:55;9.20;;;5.63;;
56860;SDS011;42744;51.094;3.490;2023-03-19T16:59:28;11.27;;;5.40;;
56860;SDS011;42744;51.094;3.490;2023-03-19T17:01:55;12.80;;;5.27;;
56860;SDS011;42744;51.094;3.490;2023-03-19T17:04:22;8.07;;;4.50;;
56860;SDS011;42744;51.094;3.490;2023-03-19T17:06:48;8.53;;;4.40;;
56860;SDS011;42744;51.094;3.490;2023-03-19T17:09:15;9.10;;;5.27;;